Terminal Aerodrome Forecast
Issued by NWS

Current Version | Previous Version | Graphics & Text | Print | Product List | Glossary On
Versions: 1 2 3 4 5 6 7 8 9 10 11 12 13 14 15 16 17 18
000
FTUS41 KPBZ 210520
TAFHLG
TAF
KHLG 210520Z 2106/2206 00000KT 5SM BR SKC
     FM210800 00000KT 1SM BR SCT003
      TEMPO 2108/2112 1/4SM FG VV001
     FM211300 VRB03KT P6SM SCT040=

USA.gov is the U.S. government's official web portal to all federal, state and local government web resources and services.